Weather reports worldwide

Advertisment
Siguenza, Spain (8150): temperature & dewpoint: 28.05.2020 21:00:00 - 03.06.2020 21:00:00 (CEST)Siguenza, Spain (8150): wind speed & gusts: 28.05.2020 21:00:00 - 03.06.2020 21:00:00 (CEST)Siguenza, Spain (8150): wind direction: 28.05.2020 21:00:00 - 03.06.2020 21:00:00 (CEST)Siguenza, Spain (8150): visibility: 28.05.2020 21:00:00 - 03.06.2020 21:00:00 (CEST)Siguenza, Spain (8150): sunshine duration: 28.05.2020 21:00:00 - 03.06.2020 21:00:00 (CEST)Siguenza, Spain (8150): precipitation: 28.05.2020 21:00:00 - 03.06.2020 21:00:00 (CEST)
Date & Time tt [°C] td [°C] ff [km/h] ff [kn] fx [km/h] fx [kn] dd vv [km] sd [min] rr [mm]
03.06.2020 21:00:00 - - - - - - - - - -
03.06.2020 20:00:00 16,2 11,3 9 5 36 19 NE 20 0 -
03.06.2020 19:00:00 16,9 12,6 8 4 36 19 NNW 20 0 2,4
03.06.2020 18:00:00 23,2 8,8 12 6 38 21 SW 20 22 0,0
03.06.2020 17:00:00 24,1 8,5 - - - - - 20 - -
03.06.2020 16:00:00 24,7 8,7 15 8 42 23 SW 20 56 0,0
03.06.2020 15:00:00 24,2 8,9 18 10 36 19 SSW 20 53 0,0
03.06.2020 14:00:00 23,8 7,4 14 7 35 19 SW 20 60 -
03.06.2020 13:00:00 23,5 8,0 16 9 34 18 SSW 20 52 0,0
03.06.2020 12:00:00 23,3 11,0 14 8 34 18 SSW 20 10 0,0
03.06.2020 11:00:00 21,3 9,8 10 6 17 9 SW 20 11 0,0
03.06.2020 10:00:00 19,0 10,3 5 3 10 5 SW 20 0 0,0
03.06.2020 09:00:00 14,3 11,1 2 1 7 4 NE 20 0 0,0
03.06.2020 08:00:00 10,7 9,2 2 1 11 6 NNE 20 0 -
03.06.2020 07:00:00 8,7 7,6 2 1 8 5 ENE 20 0 0,0
03.06.2020 06:00:00 8,7 7,4 2 1 8 4 ENE 18 0 0,0
03.06.2020 05:00:00 9,1 7,8 3 2 9 5 ENE 20 0 0,0
03.06.2020 04:00:00 9,5 8,1 4 2 8 4 NE 20 0 0,0
03.06.2020 03:00:00 10,0 8,4 1 1 6 4 ENE 18 0 0,0
03.06.2020 02:00:00 11,0 9,0 3 1 5 3 NE 20 0 -
03.06.2020 01:00:00 12,0 9,7 2 1 5 3 NE 20 0 0,0
03.06.2020 00:00:00 13,1 10,0 2 1 9 5 E 20 0 0,0
02.06.2020 23:00:00 14,8 10,6 5 3 8 5 NNE 20 0 0,0
02.06.2020 22:00:00 17,2 11,4 2 1 5 3 NE 20 0 0,0
02.06.2020 21:00:00 20,8 11,4 0 0 13 7 N 20 0 0,0
02.06.2020 20:00:00 23,3 7,8 6 3 17 9 SW 20 0 -
02.06.2020 19:00:00 23,7 8,1 11 6 23 13 SSW 20 2 0,0
02.06.2020 18:00:00 24,6 6,8 12 7 27 14 SSW 20 50 0,0
02.06.2020 17:00:00 25,1 8,9 16 8 30 16 SSW 20 60 0,0
02.06.2020 16:00:00 24,6 9,7 8 4 24 13 WSW 20 55 0,0
02.06.2020 15:00:00 24,9 6,5 11 6 26 14 SSW 20 60 0,0
02.06.2020 14:00:00 24,2 9,3 13 7 24 13 SSW 20 45 -
02.06.2020 13:00:00 23,3 11,3 9 5 22 12 SW 20 22 0,0
02.06.2020 12:00:00 22,7 11,8 9 5 17 9 SSW 20 3 0,0
02.06.2020 11:00:00 21,0 12,6 5 3 14 8 SW 20 3 0,0
02.06.2020 10:00:00 19,5 12,5 6 3 13 7 SSW 20 0 0,0
02.06.2020 09:00:00 16,4 13,7 2 1 6 3 ENE 20 0 0,0
02.06.2020 08:00:00 13,4 12,1 2 1 5 3 N 20 0 -
02.06.2020 07:00:00 12,0 11,1 1 1 7 4 NNE 14 0 0,0
02.06.2020 06:00:00 11,5 10,3 4 2 7 4 NNE 18 0 0,0
02.06.2020 05:00:00 12,2 11,0 4 2 8 5 NE 20 0 0,0
02.06.2020 04:00:00 12,5 11,1 3 2 8 4 N 20 0 0,0
02.06.2020 03:00:00 13,1 11,1 5 3 8 5 NNE 20 0 0,0
02.06.2020 02:00:00 13,2 11,4 3 2 8 5 NE 20 0 -
02.06.2020 01:00:00 13,4 11,1 3 2 10 5 NE 20 0 0,0
02.06.2020 00:00:00 15,0 12,5 2 1 8 4 NNE 20 0 0,0
01.06.2020 23:00:00 16,2 13,0 1 1 5 3 NNE 20 0 0,0
01.06.2020 22:00:00 18,0 12,8 2 1 4 2 E 20 0 0,0
01.06.2020 21:00:00 20,2 13,7 1 1 9 5 E 20 0 0,0
01.06.2020 20:00:00 22,6 11,3 4 2 14 8 SSW 20 0 -
01.06.2020 19:00:00 23,7 11,1 5 3 13 7 SW 20 0 0,0
01.06.2020 18:00:00 24,4 9,2 8 4 17 9 SW 20 56 0,0
01.06.2020 17:00:00 24,6 8,1 8 4 24 13 S 20 59 0,0
01.06.2020 16:00:00 24,8 9,6 6 4 18 10 SSW 20 60 0,0
01.06.2020 15:00:00 24,1 9,3 9 5 21 11 SSW 20 60 0,0
01.06.2020 14:00:00 22,9 10,6 6 3 21 11 SSE 20 60 -
01.06.2020 13:00:00 22,1 12,1 9 5 24 13 SW 20 59 0,0
01.06.2020 12:00:00 20,5 12,0 11 6 26 14 SSW 20 11 0,0
01.06.2020 11:00:00 18,8 12,5 14 8 23 12 SSW 20 13 0,0
01.06.2020 10:00:00 17,3 13,1 10 5 20 11 SSW 20 1 0,0
01.06.2020 09:00:00 14,6 13,2 4 2 7 4 S 20 0 0,0
01.06.2020 08:00:00 12,3 11,6 0 0 6 4 N 20 0 -
01.06.2020 07:00:00 10,6 9,8 2 1 6 3 N 15 0 0,0
01.06.2020 06:00:00 10,9 9,9 4 2 8 4 SW 11 0 0,0
01.06.2020 05:00:00 11,8 10,5 1 1 5 3 SW 12 0 0,0
01.06.2020 04:00:00 12,9 11,7 1 1 9 5 SW 18 0 0,0
01.06.2020 03:00:00 13,4 12,1 5 3 9 5 N 20 0 0,4
01.06.2020 02:00:00 13,6 12,1 4 2 11 6 NNE 17 0 -
01.06.2020 01:00:00 13,7 11,9 6 4 25 13 S 20 0 0,0
01.06.2020 00:00:00 14,0 12,7 9 5 20 11 WSW 20 0 0,2
31.05.2020 23:00:00 14,0 12,7 3 2 9 5 SSW 16 0 0,4
31.05.2020 22:00:00 14,2 12,5 5 3 14 8 SW 10 0 2,6
31.05.2020 21:00:00 14,9 13,1 5 3 - - E 6 - -
31.05.2020 20:00:00 - - - - - - - - - -
31.05.2020 19:00:00 20,7 10,8 10 5 31 17 N 20 4 0,0
31.05.2020 18:00:00 23,7 10,4 12 7 26 14 NNW 20 60 0,0
31.05.2020 17:00:00 23,9 9,8 10 6 33 18 NNW 20 60 0,0
31.05.2020 16:00:00 25,1 10,5 8 4 23 12 SSW 20 60 0,0
31.05.2020 15:00:00 23,6 10,6 11 6 20 11 SSW 20 35 0,0
31.05.2020 14:00:00 22,1 10,3 8 4 18 10 SSW 20 9 -
31.05.2020 13:00:00 21,4 11,4 9 5 17 9 SW 20 2 0,0
31.05.2020 12:00:00 21,2 9,8 9 5 21 11 SSW 20 0 0,0
31.05.2020 11:00:00 22,0 10,2 8 4 23 12 SW 20 6 0,0
31.05.2020 10:00:00 20,2 9,2 11 6 21 11 S 20 2 0,0
31.05.2020 09:00:00 15,4 11,6 4 2 7 4 S 20 0 0,0
31.05.2020 08:00:00 12,2 9,9 3 2 8 4 NNE 20 0 -
31.05.2020 07:00:00 10,0 8,8 4 2 7 4 NNE 20 0 0,0
31.05.2020 06:00:00 10,7 9,2 1 1 4 2 W 14 0 0,0
31.05.2020 05:00:00 11,3 9,6 2 1 5 3 NE 20 0 0,0
31.05.2020 04:00:00 12,2 10,0 1 1 9 5 NE 20 0 0,0
31.05.2020 03:00:00 12,6 10,6 3 2 6 4 NE 20 0 0,0
31.05.2020 02:00:00 13,8 11,1 4 2 8 5 NE 20 0 -
31.05.2020 01:00:00 14,4 11,2 3 2 7 4 ENE 20 0 0,0
31.05.2020 00:00:00 15,5 11,9 2 1 10 5 NNE 20 0 0,0
30.05.2020 23:00:00 16,1 12,6 2 1 13 7 N 1,2 0 0,0
30.05.2020 22:00:00 17,3 12,6 3 2 7 4 NE 20 0 0,0
30.05.2020 21:00:00 21,2 13,9 4 2 10 5 NNE 20 0 0,0
30.05.2020 20:00:00 23,9 11,9 5 3 15 8 N 20 0 -
30.05.2020 19:00:00 25,5 8,9 6 3 23 12 NE 20 4 0,0
30.05.2020 18:00:00 25,7 8,3 8 4 18 10 SW 20 39 0,0
30.05.2020 17:00:00 27,6 8,0 4 2 23 12 W 20 60 0,0
30.05.2020 16:00:00 27,3 8,7 6 4 22 12 WSW 20 57 0,0
30.05.2020 15:00:00 27,1 8,5 10 5 19 11 S 20 60 0,0
30.05.2020 14:00:00 26,5 8,0 5 3 18 10 SSE 20 60 -
30.05.2020 13:00:00 24,8 9,6 8 4 23 12 SSW 20 59 0,0
30.05.2020 12:00:00 22,9 9,3 10 6 24 13 SSW 20 10 0,0
30.05.2020 11:00:00 20,8 8,1 11 6 22 12 SSW 20 8 0,0
30.05.2020 10:00:00 18,8 8,1 13 7 24 13 S 20 2 0,0
30.05.2020 09:00:00 15,0 9,6 6 3 12 6 SSW 20 0 0,0
30.05.2020 08:00:00 10,1 8,3 1 1 5 3 NNE 20 0 -
30.05.2020 07:00:00 8,3 7,0 3 1 5 3 NNE 20 0 0,0
30.05.2020 06:00:00 9,0 7,3 2 1 6 4 W 20 0 0,0
30.05.2020 05:00:00 10,0 7,7 2 1 7 4 ENE 20 0 0,0
30.05.2020 04:00:00 11,6 9,0 3 2 10 5 NNE 20 0 0,0
30.05.2020 03:00:00 12,2 9,4 5 3 9 5 NNE 20 0 0,0
30.05.2020 02:00:00 13,7 9,9 5 3 11 6 NE 20 0 -
30.05.2020 01:00:00 14,6 9,6 6 3 11 6 NNE 20 0 0,0
30.05.2020 00:00:00 14,6 9,8 4 2 9 5 ENE 20 0 0,0
29.05.2020 23:00:00 15,8 10,8 2 1 7 4 E 20 0 0,0
29.05.2020 22:00:00 18,3 10,9 3 1 7 4 N 20 0 0,0
29.05.2020 21:00:00 21,8 13,0 2 1 6 3 NE 20 0 0,0
29.05.2020 20:00:00 24,7 6,8 3 2 11 6 NNW 20 0 -
29.05.2020 19:00:00 26,0 4,5 5 3 16 9 NE 20 3 0,0
29.05.2020 18:00:00 26,3 5,3 8 4 19 10 NNE 20 60 0,0
29.05.2020 17:00:00 26,3 3,6 6 3 20 11 NNE 20 57 0,0
29.05.2020 16:00:00 25,7 6,8 3 2 12 7 WSW 20 43 0,0
29.05.2020 15:00:00 25,5 6,1 5 3 16 9 NE 20 51 0,0
29.05.2020 14:00:00 25,9 8,0 4 2 31 17 E 20 60 -
29.05.2020 13:00:00 24,8 8,3 5 3 14 8 SE 20 60 0,0
29.05.2020 12:00:00 22,5 10,3 7 4 16 9 SSW 20 14 0,0
29.05.2020 11:00:00 20,1 10,8 8 4 16 9 S 20 10 0,0
29.05.2020 10:00:00 17,3 9,7 10 5 17 9 SSW 20 2 0,0
29.05.2020 09:00:00 13,3 9,6 1 1 5 3 SW 20 0 0,0
29.05.2020 08:00:00 9,5 7,8 3 1 6 3 NNE 20 0 -
29.05.2020 07:00:00 7,1 6,1 2 1 6 3 ENE 20 0 0,0
29.05.2020 06:00:00 7,5 6,2 3 2 5 3 NE 20 0 0,0
29.05.2020 05:00:00 8,0 6,4 1 1 4 2 NNE 20 0 0,0
29.05.2020 04:00:00 8,8 7,1 1 1 6 3 NE 20 0 0,0
29.05.2020 03:00:00 9,6 7,7 2 1 6 3 ENE 20 0 0,0
29.05.2020 02:00:00 10,6 8,4 2 1 5 3 ENE 20 0 -
29.05.2020 01:00:00 11,7 9,0 1 1 8 4 WSW 20 0 0,0
29.05.2020 00:00:00 12,6 9,2 2 1 12 6 NE 20 0 0,0
28.05.2020 23:00:00 14,0 10,0 2 1 5 3 ESE 20 0 0,0
28.05.2020 22:00:00 17,0 10,4 1 1 6 3 WSW 20 0 0,0
28.05.2020 21:00:00 20,3 8,3 5 3 19 10 NNE 20 0 0,0

tt = temperature
td = dewpoint
ff = wind speed
fx = gusts
dd = wind direction
vv = visibility
sd = sunshine duration
rr = precipitation

Next stations